Time;durP1;ratioP1;P1;durP2;ratioP2;P2;SDS_P1;SDS_P2;PMS_P1;PMS_P2;Temp;Humidity;BMP_temperature;BMP_pressure;BME280_temperature;BME280_humidity;BME280_pressure;Samples;Min_cycle;Max_cycle;Signal;HPM_P1;HPM_P2
2023/10/08 00:01:55;;;;;;;;;;;;;;;20.02;38.40;101140.29;107122;1257;25324;-57
2023/10/08 00:04:23;;;;;;;;;;;;;;;20.01;38.35;101138.94;106803;1260;25455;-58
2023/10/08 00:06:52;;;;;;;;;;;;;;;19.98;38.29;101134.52;106859;1260;23867;-57
2023/10/08 00:09:20;;;;;;;;;;;;;;;19.97;38.06;101132.30;106887;1257;23256;-58
2023/10/08 00:11:53;;;;;;;;;;;;;;;19.95;37.99;101129.23;106864;1259;24202;-57
2023/10/08 00:14:21;;;;;;;;;;;;;;;19.93;37.58;101129.70;107134;1257;22501;-57
2023/10/08 00:16:49;;;;;;;;;;;;;;;19.91;37.44;101131.75;106902;1260;25324;-57
2023/10/08 00:19:18;;;;;;;;;;;;;;;19.90;37.41;101127.06;107181;1256;25318;-58
2023/10/08 00:21:48;;;;;;;;;;;;;;;19.89;37.39;101123.76;107184;1260;25436;-57
2023/10/08 00:24:15;;;;;;;;;;;;;;;19.88;37.31;101125.05;107167;1251;25324;-58
2023/10/08 00:26:42;;;;;;;;;;;;;;;19.88;37.21;101123.30;106886;1267;25356;-58
2023/10/08 00:29:16;;;;;;;;;;;;;;;19.87;37.02;101118.02;107099;1256;25446;-58
2023/10/08 00:31:45;;;;;;;;;;;;;;;19.87;37.04;101120.14;107084;1267;25359;-59
2023/10/08 00:34:12;;;;;;;;;;;;;;;19.87;36.95;101119.47;107105;1267;24272;-57
2023/10/08 00:36:41;;;;;;;;;;;;;;;19.87;37.06;101114.90;107113;1263;22709;-57
2023/10/08 00:39:13;;;;;;;;;;;;;;;19.86;37.01;101112.66;107180;1260;22520;-57
2023/10/08 00:41:43;;;;;;;;;;;;;;;19.85;36.83;101110.73;107175;1263;25299;-57
2023/10/08 00:44:15;;;;;;;;;;;;;;;19.84;36.74;101110.98;107114;1257;22529;-57
2023/10/08 00:46:47;;;;;;;;;;;;;;;19.83;36.61;101109.10;107103;1263;25324;-57
2023/10/08 00:54:47;;;;;;;;;;;;;;;19.75;36.96;101105.14;107078;1272;23127;-57
2023/10/08 00:57:21;;;;;;;;;;;;;;;19.67;37.18;101101.70;107129;1251;22486;-59
2023/10/08 00:59:58;;;;;;;;;;;;;;;19.64;37.33;101104.17;107124;1260;25315;-57
2023/10/08 01:02:30;;;;;;;;;;;;;;;19.63;37.36;101100.73;107344;1250;25455;-57
2023/10/08 01:04:57;;;;;;;;;;;;;;;19.60;37.39;101093.14;107177;1268;25337;-57
2023/10/08 01:07:24;;;;;;;;;;;;;;;19.56;37.42;101090.17;107106;1257;25478;-57
2023/10/08 01:09:58;;;;;;;;;;;;;;;19.53;37.27;101088.58;107122;1269;25328;-57
2023/10/08 01:15:13;;;;;;;;;;;;;;;19.56;37.17;101080.48;107125;1261;25449;-59
2023/10/08 01:17:49;;;;;;;;;;;;;;;19.54;37.09;101078.48;107175;1270;25314;-57
2023/10/08 01:20:37;;;;;;;;;;;;;;;19.52;36.99;101072.97;106363;1265;1002593;-57
2023/10/08 01:23:10;;;;;;;;;;;;;;;19.50;37.17;101073.06;107063;1266;25551;-59
2023/10/08 01:25:42;;;;;;;;;;;;;;;19.48;37.10;101080.17;106852;1270;25299;-59
2023/10/08 01:28:31;;;;;;;;;;;;;;;19.47;36.97;101085.84;107063;1260;25303;-57
2023/10/08 01:31:00;;;;;;;;;;;;;;;19.46;36.96;101088.00;107084;1257;25367;-58
2023/10/08 01:33:31;;;;;;;;;;;;;;;19.44;36.88;101086.71;107195;1258;25364;-58
2023/10/08 01:36:03;;;;;;;;;;;;;;;19.43;36.85;101080.29;107207;1251;25392;-58
2023/10/08 01:38:33;;;;;;;;;;;;;;;19.42;36.84;101080.18;107100;1260;25324;-58
2023/10/08 01:41:03;;;;;;;;;;;;;;;19.41;36.91;101077.59;107082;1256;25459;-57
2023/10/08 01:43:30;;;;;;;;;;;;;;;19.40;37.01;101075.01;107185;1257;25459;-57
2023/10/08 01:45:58;;;;;;;;;;;;;;;19.40;37.03;101071.49;107064;1257;25343;-58
2023/10/08 01:48:28;;;;;;;;;;;;;;;19.39;37.04;101063.41;107135;1257;25373;-57
2023/10/08 01:50:57;;;;;;;;;;;;;;;19.38;37.09;101051.34;107172;1263;25324;-57
2023/10/08 01:53:26;;;;;;;;;;;;;;;19.34;37.06;101052.79;106945;1266;25211;-57
2023/10/08 01:55:54;;;;;;;;;;;;;;;19.33;37.09;101051.11;107100;1265;25373;-58
2023/10/08 01:58:22;;;;;;;;;;;;;;;19.33;36.95;101046.86;106891;1275;25331;-57
2023/10/08 02:00:52;;;;;;;;;;;;;;;19.35;36.98;101042.70;107116;1267;25265;-57
2023/10/08 02:03:19;;;;;;;;;;;;;;;19.34;36.92;101044.16;107117;1253;22525;-57
2023/10/08 02:05:46;;;;;;;;;;;;;;;19.33;36.77;101041.58;107174;1264;23236;-57
2023/10/08 02:08:14;;;;;;;;;;;;;;;19.32;36.65;101037.05;106797;1267;25324;-57
2023/10/08 02:10:42;;;;;;;;;;;;;;;19.31;36.82;101036.23;107166;1257;25322;-60
2023/10/08 02:13:10;;;;;;;;;;;;;;;19.29;36.81;101036.52;106490;1271;22501;-60
2023/10/08 02:15:38;;;;;;;;;;;;;;;19.27;36.80;101034.15;106942;1257;25373;-58
2023/10/08 02:18:05;;;;;;;;;;;;;;;19.25;36.92;101028.65;106958;1263;22497;-58
2023/10/08 02:20:32;;;;;;;;;;;;;;;19.24;36.83;101027.30;106951;1260;23266;-58
2023/10/08 02:22:59;;;;;;;;;;;;;;;19.22;36.91;101024.41;107143;1252;23547;-59
2023/10/08 02:25:27;;;;;;;;;;;;;;;19.20;36.78;101029.98;107127;1258;25372;-58
2023/10/08 02:27:54;;;;;;;;;;;;;;;19.18;36.92;101028.65;107159;1256;25308;-58
2023/10/08 02:30:21;;;;;;;;;;;;;;;19.16;37.16;101028.43;106905;1267;25382;-58
2023/10/08 02:32:49;;;;;;;;;;;;;;;19.13;37.31;101025.22;107142;1254;25296;-58
2023/10/08 02:35:16;;;;;;;;;;;;;;;19.12;37.50;101027.95;106915;1260;25373;-58
2023/10/08 02:37:45;;;;;;;;;;;;;;;19.10;37.66;101027.69;107142;1256;25364;-59
2023/10/08 02:40:28;;;;;;;;;;;;;;;19.07;37.74;101023.94;107163;1257;25299;-58
2023/10/08 02:43:00;;;;;;;;;;;;;;;19.05;37.74;101021.95;107103;1264;25327;-58
2023/10/08 02:45:27;;;;;;;;;;;;;;;19.03;37.65;101016.09;107139;1267;25455;-58
2023/10/08 02:47:55;;;;;;;;;;;;;;;19.01;37.48;101013.21;107160;1261;25318;-58
2023/10/08 02:50:22;;;;;;;;;;;;;;;18.99;37.48;101016.28;107171;1263;25421;-59
2023/10/08 02:52:52;;;;;;;;;;;;;;;18.96;37.54;101010.64;107140;1257;25299;-59
2023/10/08 02:55:33;;;;;;;;;;;;;;;18.94;37.38;101005.14;107093;1257;25328;-58
2023/10/08 02:58:03;;;;;;;;;;;;;;;18.92;37.51;101000.51;107066;1254;22520;-58
2023/10/08 03:00:30;;;;;;;;;;;;;;;18.90;37.53;100997.46;106940;1259;22511;-58
2023/10/08 03:02:58;;;;;;;;;;;;;;;18.88;37.55;100994.19;106988;1269;25823;-59
2023/10/08 03:05:30;;;;;;;;;;;;;;;18.86;37.72;100987.61;106965;1258;25344;-58
2023/10/08 03:07:57;;;;;;;;;;;;;;;18.86;37.79;100987.48;106824;1269;25766;-59
2023/10/08 03:10:32;;;;;;;;;;;;;;;18.85;37.83;100985.42;106821;1261;25324;-60
2023/10/08 03:13:04;;;;;;;;;;;;;;;18.83;37.71;100989.02;106965;1257;25369;-59
2023/10/08 03:15:38;;;;;;;;;;;;;;;18.82;37.78;100988.55;107007;1257;22504;-58
2023/10/08 03:18:10;;;;;;;;;;;;;;;18.80;37.79;100985.32;106896;1254;25452;-58
2023/10/08 03:20:45;;;;;;;;;;;;;;;18.79;37.75;100984.33;107048;1257;25383;-58
2023/10/08 03:23:22;;;;;;;;;;;;;;;18.78;37.70;100979.63;106998;1258;25761;-59
2023/10/08 03:26:02;;;;;;;;;;;;;;;18.77;37.66;100977.25;107037;1268;25303;-58
2023/10/08 03:28:30;;;;;;;;;;;;;;;18.65;37.85;100970.81;107048;1255;25351;-58
2023/10/08 03:31:13;;;;;;;;;;;;;;;18.70;37.66;100969.67;106748;1276;25318;-58
2023/10/08 03:33:42;;;;;;;;;;;;;;;18.72;37.72;100973.42;106808;1267;25333;-58
2023/10/08 03:36:22;;;;;;;;;;;;;;;18.73;37.74;100975.35;107174;1255;24238;-58
2023/10/08 03:38:52;;;;;;;;;;;;;;;18.72;37.75;100971.31;107139;1255;25299;-58
2023/10/08 03:41:27;;;;;;;;;;;;;;;18.72;37.78;100966.94;106912;1257;22505;-58
2023/10/08 03:44:01;;;;;;;;;;;;;;;18.71;37.94;100960.69;107160;1254;25379;-58
2023/10/08 03:46:39;;;;;;;;;;;;;;;18.71;37.77;100958.22;107147;1263;25315;-58
2023/10/08 03:49:15;;;;;;;;;;;;;;;18.66;37.74;100955.45;107137;1262;23375;-58
2023/10/08 03:51:42;;;;;;;;;;;;;;;18.64;37.89;100949.79;106959;1259;22505;-59
2023/10/08 03:56:37;;;;;;;;;;;;;;;18.70;37.97;100945.98;106982;1264;25296;-59
2023/10/08 03:59:12;;;;;;;;;;;;;;;18.71;38.11;100943.64;107189;1257;25373;-58
2023/10/08 04:01:43;;;;;;;;;;;;;;;18.72;38.20;100953.44;107235;1264;22515;-58
2023/10/08 04:04:13;;;;;;;;;;;;;;;18.72;38.24;100956.77;107112;1267;25382;-58
2023/10/08 04:06:48;;;;;;;;;;;;;;;18.73;38.31;100951.81;107139;1254;25320;-58
2023/10/08 04:09:24;;;;;;;;;;;;;;;18.73;38.27;100947.37;106329;1270;1003000;-58
2023/10/08 04:11:51;;;;;;;;;;;;;;;18.74;38.34;100945.56;107134;1264;25308;-60
2023/10/08 04:14:20;;;;;;;;;;;;;;;18.75;38.33;100940.27;106906;1270;22638;-57
2023/10/08 04:16:51;;;;;;;;;;;;;;;18.77;38.45;100941.91;107172;1252;22621;-59
2023/10/08 04:19:18;;;;;;;;;;;;;;;18.78;38.40;100948.14;107095;1264;25345;-58
2023/10/08 04:21:53;;;;;;;;;;;;;;;18.80;38.30;100946.31;107116;1257;25324;-58
2023/10/08 04:24:25;;;;;;;;;;;;;;;18.82;38.26;100947.98;107173;1254;25299;-58
2023/10/08 04:26:56;;;;;;;;;;;;;;;18.83;38.06;100953.02;107127;1251;25292;-58
2023/10/08 04:29:23;;;;;;;;;;;;;;;18.76;38.29;100946.16;107141;1264;22492;-57
2023/10/08 04:32:01;;;;;;;;;;;;;;;18.80;38.06;100946.86;107179;1261;23371;-58
2023/10/08 04:34:28;;;;;;;;;;;;;;;18.80;37.94;100943.82;107063;1267;25308;-58
2023/10/08 04:36:57;;;;;;;;;;;;;;;18.81;38.04;100938.36;107090;1263;22509;-57
2023/10/08 04:39:33;;;;;;;;;;;;;;;18.82;38.09;100943.20;107189;1270;25766;-58
2023/10/08 04:42:09;;;;;;;;;;;;;;;18.82;38.24;100943.73;107113;1263;25302;-58
2023/10/08 04:44:40;;;;;;;;;;;;;;;18.85;38.37;100940.79;106870;1267;25309;-59
2023/10/08 04:47:31;;;;;;;;;;;;;;;18.86;38.46;100940.54;107148;1254;25420;-59
2023/10/08 04:49:57;;;;;;;;;;;;;;;18.87;38.66;100941.73;107090;1261;25309;-59
2023/10/08 04:52:27;;;;;;;;;;;;;;;18.83;38.84;100941.92;107076;1255;25302;-58
2023/10/08 04:54:54;;;;;;;;;;;;;;;18.87;38.85;100934.86;107155;1261;25306;-58
2023/10/08 04:57:22;;;;;;;;;;;;;;;18.91;38.85;100932.54;107169;1254;24392;-59
2023/10/08 04:59:50;;;;;;;;;;;;;;;18.91;38.88;100937.61;107048;1251;25441;-59
2023/10/08 05:05:21;;;;;;;;;;;;;;;18.95;38.74;100942.52;107164;1267;25321;-59
2023/10/08 05:13:14;;;;;;;;;;;;;;;18.99;38.78;100926.85;107044;1255;25289;-59
2023/10/08 05:15:47;;;;;;;;;;;;;;;19.01;38.95;100923.71;107163;1256;25384;-59
2023/10/08 05:23:53;;;;;;;;;;;;;;;19.08;38.88;100918.74;107122;1253;25341;-59
2023/10/08 05:29:00;;;;;;;;;;;;;;;19.13;38.95;100920.41;107131;1254;25333;-59
2023/10/08 05:34:32;;;;;;;;;;;;;;;19.19;39.16;100907.59;107089;1267;24201;-59
2023/10/08 05:39:32;;;;;;;;;;;;;;;19.25;39.36;100903.90;107108;1254;25455;-58
2023/10/08 05:42:16;;;;;;;;;;;;;;;19.30;39.43;100903.31;107079;1254;25299;-58
2023/10/08 05:45:13;;;;;;;;;;;;;;;19.33;39.33;100897.52;107134;1267;25318;-58
2023/10/08 05:55:27;;;;;;;;;;;;;;;19.54;39.31;100885.84;107157;1255;25286;-59
2023/10/08 06:01:06;;;;;;;;;;;;;;;19.66;39.33;100887.95;107036;1254;25307;-60
2023/10/08 06:03:37;;;;;;;;;;;;;;;19.73;39.38;100885.62;107103;1254;25369;-58
2023/10/08 06:08:49;;;;;;;;;;;;;;;19.87;39.43;100879.50;106966;1251;25437;-58
2023/10/08 06:14:12;;;;;;;;;;;;;;;20.03;39.39;100868.83;107055;1257;25386;-59
2023/10/08 06:16:43;;;;;;;;;;;;;;;20.12;39.39;100871.27;107106;1251;25343;-60
2023/10/08 06:19:11;;;;;;;;;;;;;;;20.21;39.38;100880.65;107019;1250;25382;-59
2023/10/08 06:21:39;;;;;;;;;;;;;;;20.31;39.44;100888.54;107169;1251;25299;-59
2023/10/08 06:24:08;;;;;;;;;;;;;;;20.40;39.26;100894.64;107307;1254;25350;-60
2023/10/08 06:26:48;;;;;;;;;;;;;;;20.51;39.20;100893.48;107134;1270;22507;-59
2023/10/08 06:29:18;;;;;;;;;;;;;;;20.60;39.06;100899.03;107029;1257;25324;-59
2023/10/08 06:31:55;;;;;;;;;;;;;;;20.69;38.93;100899.57;107111;1264;24055;-59
2023/10/08 06:34:25;;;;;;;;;;;;;;;20.78;38.92;100898.63;107064;1257;25306;-56
2023/10/08 06:36:53;;;;;;;;;;;;;;;20.86;38.97;100895.84;106698;1263;22502;-59
2023/10/08 06:39:33;;;;;;;;;;;;;;;20.95;38.91;100887.18;106885;1254;24374;-59
2023/10/08 06:42:00;;;;;;;;;;;;;;;21.05;38.70;100882.19;107018;1254;25334;-58
2023/10/08 06:44:30;;;;;;;;;;;;;;;21.15;38.59;100874.32;106902;1257;25369;-59
2023/10/08 06:46:58;;;;;;;;;;;;;;;21.25;38.41;100874.92;106868;1261;25386;-58
2023/10/08 06:49:24;;;;;;;;;;;;;;;21.34;38.32;100871.36;106403;1254;1003416;-58
2023/10/08 06:51:51;;;;;;;;;;;;;;;21.43;38.23;100871.64;106829;1258;25327;-58
2023/10/08 06:54:19;;;;;;;;;;;;;;;21.52;38.16;100866.42;107120;1254;24182;-58
2023/10/08 06:56:46;;;;;;;;;;;;;;;21.61;37.90;100868.67;107234;1254;25343;-59
2023/10/08 06:59:14;;;;;;;;;;;;;;;21.68;37.63;100870.63;107179;1254;25296;-59
2023/10/08 07:01:45;;;;;;;;;;;;;;;21.76;37.45;100866.73;107243;1254;25446;-59
2023/10/08 07:04:12;;;;;;;;;;;;;;;21.83;37.27;100863.69;107096;1257;25296;-58
2023/10/08 07:06:40;;;;;;;;;;;;;;;21.88;37.27;100864.91;107192;1254;25327;-58
2023/10/08 07:09:28;;;;;;;;;;;;;;;21.94;37.37;100866.12;107115;1263;25324;-58
2023/10/08 07:11:56;;;;;;;;;;;;;;;21.99;37.41;100859.91;106894;1267;25324;-58
2023/10/08 07:14:26;;;;;;;;;;;;;;;22.04;37.24;100857.30;107139;1263;24260;-58
2023/10/08 07:17:00;;;;;;;;;;;;;;;22.10;37.03;100856.36;106833;1274;25308;-57
2023/10/08 07:19:37;;;;;;;;;;;;;;;22.16;36.92;100861.27;106938;1257;25299;-58
2023/10/08 07:22:18;;;;;;;;;;;;;;;22.22;36.92;100866.49;107193;1254;25343;-58
2023/10/08 07:24:45;;;;;;;;;;;;;;;22.28;36.70;100861.52;106856;1259;25200;-58
2023/10/08 07:27:13;;;;;;;;;;;;;;;22.32;36.57;100854.64;107103;1254;23220;-59
2023/10/08 07:29:40;;;;;;;;;;;;;;;22.35;36.63;100856.39;106816;1270;25430;-57
2023/10/08 07:32:11;;;;;;;;;;;;;;;22.28;36.49;100856.86;106407;1257;1003052;-58
2023/10/08 07:34:38;;;;;;;;;;;;;;;22.28;36.45;100851.75;107136;1251;25328;-58
2023/10/08 07:37:11;;;;;;;;;;;;;;;22.30;36.39;100851.43;107201;1255;25376;-59
2023/10/08 07:39:46;;;;;;;;;;;;;;;22.31;36.47;100847.28;107098;1251;25309;-58
2023/10/08 07:42:13;;;;;;;;;;;;;;;22.33;36.50;100843.80;107080;1263;24199;-58
2023/10/08 07:44:39;;;;;;;;;;;;;;;22.35;36.45;100845.63;107026;1256;25538;-58
2023/10/08 07:47:11;;;;;;;;;;;;;;;22.37;36.43;100848.33;107156;1256;25323;-59
2023/10/08 07:49:38;;;;;;;;;;;;;;;22.39;36.43;100844.78;107107;1263;25278;-60
2023/10/08 07:52:05;;;;;;;;;;;;;;;22.42;36.45;100841.42;107196;1250;25368;-59
2023/10/08 07:54:34;;;;;;;;;;;;;;;22.44;36.50;100842.48;107101;1270;26243;-59
2023/10/08 07:57:12;;;;;;;;;;;;;;;22.48;36.53;100838.34;107090;1257;22491;-59
2023/10/08 07:59:51;;;;;;;;;;;;;;;22.51;36.65;100832.25;107165;1263;25311;-59
2023/10/08 08:02:20;;;;;;;;;;;;;;;22.56;36.42;100835.27;107221;1257;25271;-58
2023/10/08 08:04:50;;;;;;;;;;;;;;;22.61;36.45;100825.61;107130;1254;25350;-58
2023/10/08 08:07:17;;;;;;;;;;;;;;;22.66;36.30;100825.81;106666;1253;385668;-60
2023/10/08 08:09:50;;;;;;;;;;;;;;;22.72;36.35;100828.22;107026;1257;25305;-59
2023/10/08 08:12:19;;;;;;;;;;;;;;;22.77;36.14;100825.34;106918;1266;22545;-59
2023/10/08 08:14:46;;;;;;;;;;;;;;;22.84;36.17;100818.69;107107;1267;22496;-59
2023/10/08 08:17:13;;;;;;;;;;;;;;;22.90;36.09;100822.52;107150;1257;25487;-59
2023/10/08 08:19:40;;;;;;;;;;;;;;;22.94;36.13;100824.28;107197;1264;25312;-58
2023/10/08 08:22:07;;;;;;;;;;;;;;;22.97;36.03;100818.26;107107;1261;25368;-61
2023/10/08 08:24:36;;;;;;;;;;;;;;;23.00;36.11;100818.60;106950;1256;25367;-58
2023/10/08 08:27:23;;;;;;;;;;;;;;;23.01;36.18;100816.86;106999;1263;23259;-58
2023/10/08 08:29:55;;;;;;;;;;;;;;;23.04;36.26;100807.31;106931;1257;25305;-58
2023/10/08 08:32:23;;;;;;;;;;;;;;;23.06;36.32;100803.29;107026;1258;25417;-58
2023/10/08 08:34:53;;;;;;;;;;;;;;;23.10;36.32;100801.92;107109;1256;25315;-57
2023/10/08 08:37:25;;;;;;;;;;;;;;;23.15;36.36;100802.42;107119;1261;22719;-58
2023/10/08 08:39:52;;;;;;;;;;;;;;;23.20;36.28;100796.92;106194;1259;1003096;-58
2023/10/08 08:42:23;;;;;;;;;;;;;;;23.26;36.31;100797.69;106405;1250;1002982;-57
2023/10/08 08:44:50;;;;;;;;;;;;;;;23.33;36.30;100802.16;107147;1267;25455;-58
2023/10/08 08:47:18;;;;;;;;;;;;;;;23.40;36.28;100801.11;107165;1253;25330;-57
2023/10/08 08:49:45;;;;;;;;;;;;;;;23.48;36.36;100805.83;106832;1270;25305;-57
2023/10/08 08:52:13;;;;;;;;;;;;;;;23.55;36.09;100805.63;106963;1266;25382;-57
2023/10/08 08:54:42;;;;;;;;;;;;;;;23.62;35.86;100798.91;107279;1254;25344;-58
2023/10/08 08:57:13;;;;;;;;;;;;;;;23.69;35.49;100798.56;107339;1255;22795;-58
2023/10/08 08:59:43;;;;;;;;;;;;;;;23.75;35.47;100798.48;107260;1255;24245;-58
2023/10/08 09:02:10;;;;;;;;;;;;;;;23.80;35.32;100803.39;107486;1266;22505;-57
2023/10/08 09:04:38;;;;;;;;;;;;;;;23.83;35.38;100801.53;107150;1251;24369;-58
2023/10/08 09:07:05;;;;;;;;;;;;;;;23.87;35.44;100796.30;107189;1254;22502;-58
2023/10/08 09:09:32;;;;;;;;;;;;;;;23.89;35.36;100791.67;107098;1261;25363;-58
2023/10/08 09:11:59;;;;;;;;;;;;;;;23.92;35.22;100792.36;107123;1254;25324;-58
2023/10/08 09:14:29;;;;;;;;;;;;;;;23.94;35.16;100788.09;107118;1269;25383;-58
2023/10/08 09:16:56;;;;;;;;;;;;;;;23.97;35.15;100787.55;107237;1251;25344;-58
2023/10/08 09:19:24;;;;;;;;;;;;;;;23.97;35.21;100786.42;107085;1255;25324;-59
2023/10/08 09:22:07;;;;;;;;;;;;;;;23.99;35.23;100792.34;107146;1250;24253;-58
2023/10/08 09:24:36;;;;;;;;;;;;;;;23.99;35.16;100794.25;107205;1256;24255;-57
2023/10/08 09:27:04;;;;;;;;;;;;;;;23.99;35.12;100795.86;107251;1257;25334;-59
2023/10/08 09:29:31;;;;;;;;;;;;;;;23.99;35.44;100797.27;107353;1254;22512;-58
2023/10/08 09:31:59;;;;;;;;;;;;;;;23.97;35.28;100802.40;107178;1254;25369;-59
2023/10/08 09:34:29;;;;;;;;;;;;;;;23.95;35.37;100805.39;107147;1253;24206;-58
2023/10/08 09:36:56;;;;;;;;;;;;;;;23.94;35.33;100809.05;107107;1254;22573;-58
2023/10/08 09:39:24;;;;;;;;;;;;;;;23.92;35.14;100812.35;106971;1259;25451;-58
2023/10/08 09:41:50;;;;;;;;;;;;;;;23.89;35.08;100806.73;107209;1255;22501;-59
2023/10/08 09:44:18;;;;;;;;;;;;;;;23.87;35.40;100807.25;107081;1258;25455;-59
2023/10/08 09:46:47;;;;;;;;;;;;;;;23.86;35.63;100807.90;107222;1253;22606;-58
2023/10/08 09:49:16;;;;;;;;;;;;;;;23.84;35.55;100808.39;106931;1267;22540;-58
2023/10/08 09:51:43;;;;;;;;;;;;;;;23.82;35.46;100805.67;107191;1253;26147;-58
2023/10/08 09:54:13;;;;;;;;;;;;;;;23.80;35.22;100807.83;107155;1260;25465;-59
2023/10/08 09:56:43;;;;;;;;;;;;;;;23.76;35.24;100803.68;107250;1254;25359;-58
2023/10/08 09:59:10;;;;;;;;;;;;;;;23.76;35.37;100803.73;107526;1256;25331;-59
2023/10/08 10:01:37;;;;;;;;;;;;;;;23.75;35.49;100803.36;107906;1256;25484;-58
2023/10/08 10:04:06;;;;;;;;;;;;;;;23.76;35.47;100800.18;107201;1256;22578;-58
2023/10/08 10:06:33;;;;;;;;;;;;;;;23.75;35.63;100799.71;107297;1250;26649;-59
2023/10/08 10:09:00;;;;;;;;;;;;;;;23.75;35.63;100795.98;107226;1254;25455;-58
2023/10/08 10:11:31;;;;;;;;;;;;;;;23.74;35.75;100792.70;107588;1259;23156;-57
2023/10/08 10:13:59;;;;;;;;;;;;;;;23.73;35.81;100794.52;107428;1256;25305;-59
2023/10/08 10:16:27;;;;;;;;;;;;;;;23.72;35.91;100799.75;106967;1251;25315;-58
2023/10/08 10:18:57;;;;;;;;;;;;;;;23.73;36.10;100798.42;107763;1254;22697;-57
2023/10/08 10:21:26;;;;;;;;;;;;;;;23.76;36.35;100798.75;106961;1257;25478;-59
2023/10/08 10:23:53;;;;;;;;;;;;;;;23.77;37.75;100798.10;106987;1256;25484;-59
2023/10/08 10:26:25;;;;;;;;;;;;;;;23.74;40.06;100799.78;107117;1253;24226;-57
2023/10/08 10:29:07;;;;;;;;;;;;;;;23.70;41.17;100798.48;106784;1253;1003412;-58
2023/10/08 10:31:34;;;;;;;;;;;;;;;23.64;42.22;100800.02;107358;1256;25372;-57
2023/10/08 10:34:08;;;;;;;;;;;;;;;23.59;43.00;100803.01;107808;1253;24182;-57
2023/10/08 10:36:39;;;;;;;;;;;;;;;23.52;43.58;100805.66;107305;1255;25388;-57
2023/10/08 10:39:28;;;;;;;;;;;;;;;23.45;44.13;100813.29;107197;1251;23859;-56
2023/10/08 10:42:04;;;;;;;;;;;;;;;23.36;43.76;100839.46;107188;1251;25337;-56
2023/10/08 10:44:30;;;;;;;;;;;;;;;23.26;42.98;100848.34;107440;1253;22501;-58
2023/10/08 10:49:53;;;;;;;;;;;;;;;22.93;43.94;100861.33;106999;1254;24329;-57
2023/10/08 10:57:44;;;;;;;;;;;;;;;22.33;44.76;100896.64;107288;1257;25330;-57
2023/10/08 11:03:02;;;;;;;;;;;;;;;21.92;44.61;100936.22;107216;1251;25305;-56
2023/10/08 11:05:31;;;;;;;;;;;;;;;21.70;45.03;100954.60;107049;1252;22508;-57
2023/10/08 11:08:05;;;;;;;;;;;;;;;21.48;44.98;100962.71;107252;1261;25306;-56
2023/10/08 11:10:32;;;;;;;;;;;;;;;21.23;45.44;100979.48;107683;1254;25333;-57
2023/10/08 11:13:02;;;;;;;;;;;;;;;21.00;45.41;100983.17;107892;1260;23356;-57
2023/10/08 11:15:40;;;;;;;;;;;;;;;20.76;45.45;100993.94;107739;1255;25389;-58
2023/10/08 11:18:08;;;;;;;;;;;;;;;20.52;46.07;101000.21;107499;1256;22778;-57
2023/10/08 11:20:39;;;;;;;;;;;;;;;20.28;46.64;101003.92;107141;1266;25333;-55
2023/10/08 11:23:18;;;;;;;;;;;;;;;20.09;47.07;101004.29;106953;1259;25317;-55
2023/10/08 11:25:52;;;;;;;;;;;;;;;19.88;47.42;101019.72;107066;1253;25350;-61
2023/10/08 11:28:19;;;;;;;;;;;;;;;19.66;47.64;101032.58;107716;1251;23321;-61
2023/10/08 11:30:50;;;;;;;;;;;;;;;19.45;48.04;101038.82;107288;1253;25425;-60
2023/10/08 11:33:17;;;;;;;;;;;;;;;19.24;48.30;101042.43;107199;1254;24167;-60
2023/10/08 11:36:06;;;;;;;;;;;;;;;19.01;48.35;101054.33;107146;1254;25318;-60
2023/10/08 11:38:41;;;;;;;;;;;;;;;18.70;49.02;101058.41;107145;1256;22617;-60
2023/10/08 11:41:20;;;;;;;;;;;;;;;18.45;50.32;101051.08;107123;1257;25315;-60
2023/10/08 11:43:48;;;;;;;;;;;;;;;18.24;51.31;101059.48;107156;1257;25368;-60
2023/10/08 11:46:18;;;;;;;;;;;;;;;18.06;52.21;101074.23;107184;1254;25368;-61
2023/10/08 11:48:46;;;;;;;;;;;;;;;17.87;52.56;101077.90;107195;1253;25482;-59
2023/10/08 11:51:17;;;;;;;;;;;;;;;17.65;53.34;101080.51;106853;1256;25386;-60
2023/10/08 11:53:44;;;;;;;;;;;;;;;17.48;54.12;101078.83;107015;1266;25330;-60
2023/10/08 11:56:13;;;;;;;;;;;;;;;17.34;54.30;101082.81;107195;1263;22501;-60
2023/10/08 11:58:43;;;;;;;;;;;;;;;17.17;54.18;101086.52;107112;1253;22507;-59
2023/10/08 12:01:17;;;;;;;;;;;;;;;17.04;54.57;101101.30;106967;1259;25330;-62
2023/10/08 12:03:45;;;;;;;;;;;;;;;16.90;54.74;101104.68;107264;1254;25333;-58
2023/10/08 12:06:15;;;;;;;;;;;;;;;16.74;54.20;101110.98;106895;1258;25252;-63
2023/10/08 12:08:44;;;;;;;;;;;;;;;16.53;54.31;101110.45;107026;1256;25324;-59
2023/10/08 12:11:15;;;;;;;;;;;;;;;16.35;53.94;101110.45;107168;1263;25333;-61
2023/10/08 12:13:45;;;;;;;;;;;;;;;16.19;54.23;101114.56;107088;1250;25319;-61
2023/10/08 12:16:18;;;;;;;;;;;;;;;16.09;54.33;101114.10;106882;1267;25315;-60
2023/10/08 12:18:58;;;;;;;;;;;;;;;16.03;54.47;101112.60;106980;1254;22515;-60
2023/10/08 12:21:26;;;;;;;;;;;;;;;15.97;52.76;101110.02;107114;1266;25383;-60
2023/10/08 12:23:54;;;;;;;;;;;;;;;15.89;50.55;101117.32;107093;1263;25201;-60
2023/10/08 12:26:22;;;;;;;;;;;;;;;15.82;50.08;101121.10;107171;1257;25324;-59
2023/10/08 12:28:48;;;;;;;;;;;;;;;15.78;49.74;101128.06;107236;1260;25334;-62
2023/10/08 12:31:16;;;;;;;;;;;;;;;15.75;48.87;101136.92;106877;1258;25315;-61
2023/10/08 12:33:43;;;;;;;;;;;;;;;15.71;48.48;101137.60;107089;1254;23868;-62
2023/10/08 12:36:13;;;;;;;;;;;;;;;15.68;49.10;101137.73;107170;1257;22504;-60
2023/10/08 12:38:41;;;;;;;;;;;;;;;15.62;48.88;101143.54;106936;1253;25455;-59
2023/10/08 12:41:11;;;;;;;;;;;;;;;15.56;49.58;101144.26;106859;1270;25307;-59
2023/10/08 12:43:42;;;;;;;;;;;;;;;15.54;50.45;101142.24;107105;1251;25337;-59
2023/10/08 12:46:18;;;;;;;;;;;;;;;15.55;50.72;101137.15;107132;1254;25327;-62
2023/10/08 12:48:47;;;;;;;;;;;;;;;15.57;50.99;101139.69;106924;1256;25348;-60
2023/10/08 12:51:14;;;;;;;;;;;;;;;15.59;51.19;101134.54;107119;1254;23694;-60
2023/10/08 12:53:50;;;;;;;;;;;;;;;15.59;50.96;101132.97;107185;1251;25330;-62
2023/10/08 12:56:21;;;;;;;;;;;;;;;15.60;51.43;101142.38;107152;1257;25473;-62
2023/10/08 12:58:48;;;;;;;;;;;;;;;15.61;51.23;101148.11;107221;1254;25320;-61
2023/10/08 13:01:17;;;;;;;;;;;;;;;15.60;50.90;101141.48;107179;1251;25439;-62
2023/10/08 13:03:47;;;;;;;;;;;;;;;15.61;50.93;101137.82;107108;1257;25490;-62
2023/10/08 13:06:21;;;;;;;;;;;;;;;15.61;50.62;101144.27;107096;1254;24015;-63
2023/10/08 13:08:50;;;;;;;;;;;;;;;15.62;50.49;101145.63;107055;1256;25455;-62
2023/10/08 13:11:22;;;;;;;;;;;;;;;15.65;50.38;101158.13;107203;1254;24005;-62
2023/10/08 13:13:50;;;;;;;;;;;;;;;15.66;50.02;101153.89;107094;1267;25330;-61
2023/10/08 13:16:17;;;;;;;;;;;;;;;15.64;50.02;101174.24;106925;1272;25334;-61
2023/10/08 13:18:44;;;;;;;;;;;;;;;15.63;50.43;101178.48;107302;1253;25369;-61
2023/10/08 13:21:12;;;;;;;;;;;;;;;15.63;50.47;101179.36;107128;1254;25341;-61
2023/10/08 13:23:39;;;;;;;;;;;;;;;15.62;50.46;101186.92;107029;1251;25300;-61
2023/10/08 13:26:07;;;;;;;;;;;;;;;15.62;51.00;101188.30;107045;1257;25296;-63
2023/10/08 13:28:34;;;;;;;;;;;;;;;15.64;51.12;101192.25;106425;1254;1015517;-61
2023/10/08 13:31:09;;;;;;;;;;;;;;;15.64;50.88;101203.60;107185;1257;24180;-61
2023/10/08 13:33:39;;;;;;;;;;;;;;;15.62;51.43;101215.23;107188;1254;25344;-61
2023/10/08 13:36:09;;;;;;;;;;;;;;;15.60;52.01;101213.73;106923;1272;25383;-60
2023/10/08 13:38:46;;;;;;;;;;;;;;;15.56;52.55;101228.94;107095;1254;25382;-61
2023/10/08 13:41:16;;;;;;;;;;;;;;;15.51;53.14;101224.54;107176;1254;25333;-62
2023/10/08 13:43:46;;;;;;;;;;;;;;;15.47;53.75;101219.96;107155;1253;25373;-61